»·PEaware :: AAL233 KSFO-KRNO

AAL233 :: KSFO-KRNO

FLIGHT INFORMATION

Flight Status: Arrived
Operator:
American Airlines
More flights by this operator :: More flights under this callsign
Pilot: Anonymous 14167 (14167)
Aircraft: BOEING 737-800
(B738)
More flights by this aircraft type
Origin: KSFO San Francisco Intl
United States
Destination: KRNO Reno/Tahoe Intl
United States
More flights between these airports :: More routes between these airports
Route: +TRUKN2 ORRCA HOBOA JUDPU
File this flight plan on PilotEdge
Remarks:
Altitude:
(Current/Filed)
29,000ft
Speed:
(Current/Filed)
395kts
Departed: 05-Jan-18 09:10 PM
Arrived: 05-Jan-18 09:45 PM
Distance/Time
Traveled:
166nm/0:34
Distance/Time
To Go:
Arrived

Flight Plot

Page will automatically refresh every two minutes.

Flight plan parsing failed; only flown route is shown


Map Options




Map Legend


Flown Route
Filed Route
Departure Airport
Arrival Airport
Navaid (VOR, NDB)
Fix

Horizontal Profiles

Position Reports

Time Latitude Longitude Heading Altitude Ground
Speed
05-Jan-18 20:43 37.619186 -122.383517 291 20ft 0kts
05-Jan-18 20:44 37.619186 -122.383517 291 20ft 0kts
05-Jan-18 20:45 37.619186 -122.383517 291 20ft 0kts
05-Jan-18 20:46 37.619186 -122.383517 291 20ft 0kts
05-Jan-18 20:47 37.619186 -122.383517 291 20ft 0kts
05-Jan-18 20:48 37.619186 -122.383517 291 20ft 0kts
05-Jan-18 20:49 37.619186 -122.383517 291 20ft 0kts
05-Jan-18 20:50 37.619186 -122.383517 291 20ft 0kts
05-Jan-18 20:51 37.619186 -122.383517 291 20ft 0kts
05-Jan-18 20:52 37.619186 -122.383517 291 20ft 0kts
05-Jan-18 20:53 37.619186 -122.383517 291 20ft 0kts
05-Jan-18 20:54 37.619186 -122.383517 291 20ft 0kts
05-Jan-18 20:55 37.619186 -122.383517 291 20ft 0kts
05-Jan-18 20:56 37.619186 -122.383517 291 20ft 0kts
05-Jan-18 20:57 37.619186 -122.383517 291 20ft 0kts
05-Jan-18 20:58 37.619186 -122.383517 291 20ft 0kts
05-Jan-18 20:59 37.619186 -122.383517 291 20ft 0kts
05-Jan-18 21:00 37.619186 -122.383517 291 20ft 0kts
05-Jan-18 21:01 37.619186 -122.383517 291 20ft 0kts
05-Jan-18 21:02 37.619186 -122.383517 291 20ft 0kts
05-Jan-18 21:03 37.619186 -122.383517 291 20ft 0kts
05-Jan-18 21:04 37.619186 -122.383517 291 20ft 0kts
05-Jan-18 21:05 37.619169 -122.383463 283 20ft 2kts
05-Jan-18 21:06 37.619080 -122.382887 327 20ft 1kts
05-Jan-18 21:07 37.619250 -122.382710 28 20ft 0kts
05-Jan-18 21:08 37.619251 -122.382709 28 20ft 0kts
05-Jan-18 21:09 37.619251 -122.382709 28 20ft 0kts
05-Jan-18 21:10 37.619403 -122.381378 115 20ft 9kts
05-Jan-18 21:11 37.617125 -122.379444 187 21ft 13kts
05-Jan-18 21:12 37.613519 -122.380827 196 21ft 10kts
05-Jan-18 21:13 37.609713 -122.383324 207 20ft 14kts
05-Jan-18 21:14 37.608300 -122.383446 120 20ft 8kts
05-Jan-18 21:15 37.608199 -122.382804 31 21ft 0kts
05-Jan-18 21:16 37.639276 -122.362440 27 1390ft 195kts
05-Jan-18 21:17 37.674073 -122.308662 53 4267ft 203kts
05-Jan-18 21:18 37.708652 -122.247200 54 6245ft 253kts
05-Jan-18 21:19 37.746872 -122.172257 56 9115ft 270kts
05-Jan-18 21:20 37.797960 -122.101670 10 11359ft 287kts
05-Jan-18 21:21 37.881105 -122.066462 25 13096ft 358kts
05-Jan-18 21:22 37.964670 -121.990790 34 16250ft 384kts
05-Jan-18 21:23 38.053336 -121.909207 33 19243ft 407kts
05-Jan-18 21:24 38.145637 -121.824553 32 22020ft 427kts
05-Jan-18 21:25 38.243475 -121.734894 32 24589ft 447kts
05-Jan-18 21:26 38.345835 -121.641145 32 27116ft 461kts
05-Jan-18 21:27 38.448304 -121.546359 39 29185ft 470kts
05-Jan-18 21:28 38.543422 -121.423009 44 29229ft 510kts
05-Jan-18 21:29 38.639670 -121.297296 44 29209ft 532kts
05-Jan-18 21:30 38.742037 -121.163865 44 29211ft 531kts
05-Jan-18 21:31 38.845070 -121.029721 44 29213ft 529kts
05-Jan-18 21:32 38.941478 -120.904334 43 28013ft 477kts
05-Jan-18 21:33 39.030937 -120.788175 43 25766ft 461kts
05-Jan-18 21:34 39.118225 -120.674958 43 23545ft 444kts
05-Jan-18 21:35 39.202171 -120.566214 43 21410ft 424kts
05-Jan-18 21:36 39.282960 -120.461684 43 19356ft 406kts
05-Jan-18 21:37 39.361226 -120.360544 43 17210ft 396kts
05-Jan-18 21:38 39.433257 -120.261512 49 16008ft 376kts
05-Jan-18 21:39 39.501198 -120.156584 49 16007ft 383kts
05-Jan-18 21:40 39.569669 -120.051396 49 16008ft 383kts
05-Jan-18 21:41 39.651128 -119.970906 9 13550ft 358kts
05-Jan-18 21:42 39.739874 -119.945218 11 11032ft 310kts
05-Jan-18 21:43 39.808459 -119.903702 55 10210ft 270kts
05-Jan-18 21:44 39.815267 -119.813876 118 9382ft 256kts
05-Jan-18 21:45 39.761633 -119.769538 177 8381ft 219kts
05-Jan-18 21:46 39.706806 -119.768645 179 8037ft 185kts
05-Jan-18 21:47 39.655355 -119.768795 179 7376ft 181kts
05-Jan-18 21:48 39.606553 -119.768983 179 6378ft 162kts
05-Jan-18 21:49 39.561294 -119.769050 180 5482ft 167kts
05-Jan-18 21:50 39.516819 -119.769099 180 4562ft 157kts
05-Jan-18 21:51 39.493184 -119.769705 208 4423ft 19kts
05-Jan-18 21:52 39.492665 -119.771142 290 4423ft 5kts
05-Jan-18 21:53 39.495525 -119.771543 359 4423ft 11kts
05-Jan-18 21:54 39.499100 -119.771528 0 4423ft 14kts
05-Jan-18 21:55 39.502298 -119.771536 0 4423ft 11kts
05-Jan-18 21:56 39.504418 -119.772249 316 4423ft 2kts
05-Jan-18 21:57 39.504471 -119.772311 318 4423ft 0kts
05-Jan-18 21:58 39.504471 -119.772311 318 4423ft 0kts

Navigation Log

Ident Type
Flight plan parsing failed, navigation log unavailable